createdAt,value
2023-01-25T00:00:46.118Z,101590.63
2023-01-25T00:03:13.195Z,101577.44
2023-01-25T00:05:40.291Z,101586.00
2023-01-25T00:08:07.249Z,101569.66
2023-01-25T00:10:34.245Z,101541.91
2023-01-25T00:13:01.200Z,101579.31
2023-01-25T00:15:28.208Z,101574.19
2023-01-25T00:17:55.210Z,101554.88
2023-01-25T00:20:22.229Z,101565.13
2023-01-25T00:22:49.202Z,101558.50
2023-01-25T00:25:16.160Z,101574.81
2023-01-25T00:27:43.170Z,101550.19
2023-01-25T00:30:10.716Z,101565.91
2023-01-25T00:32:49.627Z,101561.69
2023-01-25T00:35:16.640Z,101562.97
2023-01-25T00:37:47.480Z,101547.91
2023-01-25T00:40:14.591Z,101477.84
2023-01-25T00:42:42.258Z,101537.22
2023-01-25T00:45:13.365Z,101546.69
2023-01-25T00:47:40.671Z,101538.41
2023-01-25T00:50:08.924Z,101542.47
2023-01-25T00:52:35.970Z,101537.63
2023-01-25T00:55:03.902Z,101504.72
2023-01-25T00:57:31.424Z,101525.78
2023-01-25T00:59:58.460Z,101521.28
2023-01-25T01:02:25.577Z,101507.16
2023-01-25T01:04:56.750Z,101521.84
2023-01-25T01:07:23.874Z,101523.50
2023-01-25T01:09:52.506Z,101526.06
2023-01-25T01:12:19.901Z,101502.81
2023-01-25T01:14:47.077Z,101524.13
2023-01-25T01:17:14.059Z,101518.78
2023-01-25T01:19:41.046Z,101498.34
2023-01-25T01:22:08.581Z,101523.22
2023-01-25T01:24:35.979Z,101491.31
2023-01-25T01:27:03.267Z,101518.63
2023-01-25T01:29:30.287Z,101497.03
2023-01-25T01:31:57.468Z,101497.66
2023-01-25T01:34:26.584Z,101489.34
2023-01-25T01:36:54.537Z,101501.59
2023-01-25T01:39:22.564Z,101486.53
2023-01-25T01:41:49.669Z,101461.78
2023-01-25T01:44:22.817Z,101502.13
2023-01-25T01:46:58.531Z,101493.31
2023-01-25T01:49:32.107Z,101482.56
2023-01-25T01:52:15.364Z,101460.97
2023-01-25T01:55:05.539Z,101462.00
2023-01-25T01:57:40.709Z,101475.38
2023-01-25T02:00:14.146Z,101479.38
2023-01-25T02:02:42.355Z,101473.66
2023-01-25T02:05:18.754Z,101474.66
2023-01-25T02:07:49.431Z,101471.44
2023-01-25T02:10:20.420Z,101482.41
2023-01-25T02:12:48.934Z,101478.47
2023-01-25T02:15:16.010Z,101468.28
2023-01-25T02:17:43.057Z,101483.81
2023-01-25T02:20:15.045Z,101488.94
2023-01-25T02:22:51.136Z,101485.72
2023-01-25T02:25:18.427Z,101479.59
2023-01-25T02:27:52.827Z,101471.03
2023-01-25T02:30:20.247Z,101490.97
2023-01-25T02:32:47.247Z,101494.28
2023-01-25T02:35:22.684Z,101492.88
2023-01-25T02:37:50.994Z,101488.22
2023-01-25T02:40:18.763Z,101503.28
2023-01-25T02:42:46.806Z,101497.28
2023-01-25T02:45:19.244Z,101512.06
2023-01-25T02:47:46.324Z,101506.94
2023-01-25T02:50:15.083Z,101479.88
2023-01-25T02:52:42.902Z,101425.53
2023-01-25T02:55:10.701Z,101498.66
2023-01-25T02:57:39.967Z,101432.56
2023-01-25T03:00:08.264Z,101493.81
2023-01-25T03:02:35.652Z,101497.50
2023-01-25T03:05:02.742Z,101486.75
2023-01-25T03:07:30.677Z,101487.88
2023-01-25T03:09:58.318Z,101478.22
2023-01-25T03:12:25.680Z,101490.09
2023-01-25T03:14:53.966Z,101483.44
2023-01-25T03:17:20.994Z,101468.09
2023-01-25T03:19:49.018Z,101473.44
2023-01-25T03:22:16.570Z,101472.41
2023-01-25T03:24:43.846Z,101475.88
2023-01-25T03:27:11.342Z,101474.97
2023-01-25T03:29:51.857Z,101469.88
2023-01-25T03:32:25.452Z,101472.03
2023-01-25T03:34:53.721Z,101455.91
2023-01-25T03:37:21.301Z,101458.09
2023-01-25T03:39:49.519Z,101451.31
2023-01-25T03:42:16.618Z,101469.47
2023-01-25T03:44:44.232Z,101458.19
2023-01-25T03:47:11.305Z,101463.31
2023-01-25T03:49:38.335Z,101458.09
2023-01-25T03:52:07.564Z,101436.66
2023-01-25T03:54:37.966Z,101467.91
2023-01-25T03:57:06.765Z,101432.41
2023-01-25T03:59:41.373Z,101446.66
2023-01-25T04:02:08.393Z,101448.91
2023-01-25T04:04:36.044Z,101456.91
2023-01-25T04:07:03.880Z,101449.78
2023-01-25T04:09:32.286Z,101453.00
2023-01-25T04:12:00.202Z,101428.88
2023-01-25T04:14:43.258Z,101412.13
2023-01-25T04:17:11.298Z,101453.47
2023-01-25T04:19:54.037Z,101443.22
2023-01-25T04:22:25.924Z,101428.44
2023-01-25T04:24:55.570Z,101454.72
2023-01-25T04:27:22.862Z,101457.94
2023-01-25T04:29:57.834Z,101438.47
2023-01-25T04:32:26.874Z,101469.47
2023-01-25T04:34:54.510Z,101463.47
2023-01-25T04:37:24.658Z,101449.19
2023-01-25T04:39:58.109Z,101454.34
2023-01-25T04:42:26.531Z,101410.63
2023-01-25T04:44:56.142Z,101459.06
2023-01-25T04:47:24.384Z,101464.19
2023-01-25T04:49:51.566Z,101464.19
2023-01-25T04:52:23.145Z,101441.75
2023-01-25T04:54:50.130Z,101404.13
2023-01-25T04:57:18.146Z,101469.97
2023-01-25T04:59:49.939Z,101453.88
2023-01-25T05:02:17.401Z,101467.91
2023-01-25T05:04:44.499Z,101479.16
2023-01-25T05:07:11.652Z,101470.97
2023-01-25T05:09:38.731Z,101472.38
2023-01-25T05:12:11.782Z,101474.81
2023-01-25T05:14:53.259Z,101470.25
2023-01-25T05:17:21.370Z,101470.47
2023-01-25T05:19:48.492Z,101466.50
2023-01-25T05:22:20.914Z,101438.94
2023-01-25T05:24:51.426Z,101471.06
2023-01-25T05:27:20.313Z,101462.41
2023-01-25T05:29:53.779Z,101471.34
2023-01-25T05:32:25.353Z,101442.63
2023-01-25T05:34:52.743Z,101440.47
2023-01-25T05:37:21.405Z,101478.22
2023-01-25T05:39:55.372Z,101479.00
2023-01-25T05:42:22.327Z,101477.19
2023-01-25T05:44:49.614Z,101469.50
2023-01-25T05:47:18.276Z,101451.91
2023-01-25T05:49:46.549Z,101464.19
2023-01-25T05:52:24.115Z,101465.97
2023-01-25T05:54:51.607Z,101458.66
2023-01-25T05:57:18.571Z,101364.53
2023-01-25T05:59:45.788Z,101459.78
2023-01-25T06:02:16.376Z,101450.97
2023-01-25T06:04:44.326Z,101448.22
2023-01-25T06:07:11.549Z,101469.81
2023-01-25T06:09:38.590Z,101471.47
2023-01-25T06:12:06.882Z,101463.69
2023-01-25T06:14:34.137Z,101408.69
2023-01-25T06:17:02.833Z,101430.50
2023-01-25T06:19:48.461Z,101460.66
2023-01-25T06:22:30.601Z,101452.09
2023-01-25T06:24:57.636Z,101436.28
2023-01-25T06:27:24.580Z,101440.63
2023-01-25T06:29:51.617Z,101437.78
2023-01-25T06:32:18.672Z,101436.81
2023-01-25T06:34:46.510Z,101434.03
2023-01-25T06:37:21.739Z,101453.53
2023-01-25T06:39:48.791Z,101456.88
2023-01-25T06:42:15.800Z,101460.09
2023-01-25T06:44:42.748Z,101464.84
2023-01-25T06:47:10.175Z,101459.47
2023-01-25T06:49:37.354Z,101457.19
2023-01-25T06:52:04.470Z,101446.47
2023-01-25T06:54:31.482Z,101462.19
2023-01-25T06:56:58.436Z,101463.06
2023-01-25T06:59:25.537Z,101466.75
2023-01-25T07:01:52.575Z,101460.81
2023-01-25T07:04:19.553Z,101472.75
2023-01-25T07:06:46.538Z,101472.41
2023-01-25T07:09:14.932Z,101465.94
2023-01-25T07:11:41.953Z,101474.59
2023-01-25T07:14:08.997Z,101459.53
2023-01-25T07:16:39.147Z,101461.72
2023-01-25T07:19:07.580Z,101466.44
2023-01-25T07:21:34.741Z,101464.38
2023-01-25T07:24:02.896Z,101402.38
2023-01-25T07:26:30.268Z,101458.47
2023-01-25T07:28:58.579Z,101456.47
2023-01-25T07:31:26.538Z,101461.81
2023-01-25T07:33:55.303Z,101460.03
2023-01-25T07:36:22.908Z,101457.59
2023-01-25T07:38:53.331Z,101441.75
2023-01-25T07:41:20.459Z,101450.03
2023-01-25T07:43:47.415Z,101451.41
2023-01-25T07:46:21.793Z,101442.50
2023-01-25T07:48:51.021Z,101447.91
2023-01-25T07:51:23.284Z,101448.50
2023-01-25T07:53:56.342Z,101433.03
2023-01-25T07:56:25.777Z,101438.38
2023-01-25T07:58:55.066Z,101453.53
2023-01-25T08:01:24.305Z,101444.19
2023-01-25T08:03:51.864Z,101456.88
2023-01-25T08:06:27.407Z,101448.50
2023-01-25T08:08:55.399Z,101436.81
2023-01-25T08:11:28.473Z,101453.78
2023-01-25T08:13:56.100Z,101447.19
2023-01-25T08:16:26.267Z,101440.63
2023-01-25T08:18:55.652Z,101437.88
2023-01-25T08:21:30.069Z,101450.50
2023-01-25T08:23:58.767Z,101447.78
2023-01-25T08:26:26.483Z,101444.84
2023-01-25T08:28:54.038Z,101451.06
2023-01-25T08:31:30.128Z,101430.56
2023-01-25T08:33:58.122Z,101458.22
2023-01-25T08:36:25.543Z,101448.00
2023-01-25T08:39:01.048Z,101445.53
2023-01-25T08:41:30.280Z,101419.91
2023-01-25T08:43:57.643Z,101436.63
2023-01-25T08:46:29.290Z,101448.25
2023-01-25T08:48:57.943Z,101437.44
2023-01-25T08:51:25.987Z,101432.56
2023-01-25T08:53:53.336Z,101404.56
2023-01-25T08:56:20.601Z,101423.06
2023-01-25T08:58:49.592Z,101387.28
2023-01-25T09:01:18.104Z,101410.16
2023-01-25T09:03:47.294Z,101403.06
2023-01-25T09:06:15.213Z,101399.41
2023-01-25T09:08:42.913Z,101383.78
2023-01-25T09:11:15.916Z,101384.47
2023-01-25T09:13:43.863Z,101395.69
2023-01-25T09:16:13.789Z,101386.13
2023-01-25T09:18:43.433Z,101332.84
2023-01-25T09:21:16.935Z,101372.75
2023-01-25T09:24:04.180Z,101332.00
2023-01-25T09:26:33.522Z,101379.81
2023-01-25T09:29:00.755Z,101372.91
2023-01-25T09:31:27.968Z,101359.19
2023-01-25T09:34:14.479Z,101369.66
2023-01-25T09:36:41.698Z,101364.00
2023-01-25T09:39:13.958Z,101355.75
2023-01-25T09:41:58.423Z,101339.03
2023-01-25T09:44:37.747Z,101312.09
2023-01-25T09:47:16.881Z,101317.66
2023-01-25T09:50:17.316Z,101330.72
2023-01-25T09:53:14.674Z,101317.00
2023-01-25T09:55:42.674Z,101300.31
2023-01-25T09:58:19.964Z,101317.16
2023-01-25T10:00:52.056Z,101309.22
2023-01-25T10:03:38.999Z,101333.28
2023-01-25T10:06:06.880Z,101322.25
2023-01-25T10:08:48.147Z,101313.34
2023-01-25T10:11:27.891Z,101306.09
2023-01-25T10:13:56.559Z,101305.56
2023-01-25T10:16:37.314Z,101293.53
2023-01-25T10:19:19.646Z,101295.88
2023-01-25T10:21:51.378Z,101303.66
2023-01-25T10:24:35.952Z,101297.75
2023-01-25T10:27:14.210Z,101296.84
2023-01-25T10:29:41.421Z,101303.66
2023-01-25T10:32:28.183Z,101291.63
2023-01-25T10:34:58.904Z,101283.94
2023-01-25T10:37:29.949Z,101307.53
2023-01-25T10:39:59.928Z,101293.97
2023-01-25T10:42:29.896Z,101295.66
2023-01-25T10:44:56.935Z,101288.88
2023-01-25T10:47:27.965Z,101292.84
2023-01-25T10:49:56.531Z,101283.03
2023-01-25T10:52:29.412Z,101282.16
2023-01-25T10:55:19.842Z,101262.47
2023-01-25T10:57:51.639Z,101275.72
2023-01-25T11:00:30.179Z,101269.25
2023-01-25T11:02:57.846Z,101241.88
2023-01-25T11:05:36.857Z,101257.56
2023-01-25T11:08:34.932Z,101260.38
2023-01-25T11:11:40.527Z,101244.66
2023-01-25T11:14:18.436Z,101205.69
2023-01-25T11:16:50.630Z,101243.84
2023-01-25T11:19:38.945Z,101238.53
2023-01-25T11:22:21.781Z,101232.41
2023-01-25T11:24:48.845Z,101228.63
2023-01-25T11:27:26.237Z,101236.44
2023-01-25T11:30:19.077Z,101224.94
2023-01-25T11:32:46.333Z,101208.91
2023-01-25T11:35:25.675Z,101204.47
2023-01-25T11:38:02.699Z,101213.13
2023-01-25T11:40:48.042Z,101220.28
2023-01-25T11:43:30.258Z,101217.38
2023-01-25T11:46:17.201Z,101208.03
2023-01-25T11:49:00.890Z,101197.56
2023-01-25T11:51:44.157Z,101223.81
2023-01-25T11:54:42.130Z,101207.81
2023-01-25T11:57:35.531Z,101159.53
2023-01-25T12:00:18.186Z,101205.34
2023-01-25T12:03:00.248Z,101229.31
2023-01-25T12:05:44.727Z,101225.63
2023-01-25T12:08:18.835Z,101224.16
2023-01-25T12:11:13.603Z,101219.06
2023-01-25T12:14:02.807Z,101231.84
2023-01-25T12:16:29.769Z,101190.13
2023-01-25T12:19:02.659Z,101202.91
2023-01-25T12:21:48.040Z,101211.78
2023-01-25T12:24:33.686Z,101209.56
2023-01-25T12:27:19.284Z,101159.16
2023-01-25T12:30:12.462Z,101200.00
2023-01-25T12:33:13.853Z,101173.41
2023-01-25T12:36:06.549Z,101200.59
2023-01-25T12:39:03.935Z,101159.50
2023-01-25T12:41:43.785Z,101201.38
2023-01-25T12:44:35.257Z,101189.91
2023-01-25T12:47:15.158Z,101153.28
2023-01-25T12:49:54.718Z,101189.09
2023-01-25T12:52:41.286Z,101190.25
2023-01-25T12:55:14.540Z,101169.75
2023-01-25T12:57:51.330Z,101159.19
2023-01-25T13:00:55.451Z,101174.44
2023-01-25T13:03:51.994Z,101180.09
2023-01-25T13:06:32.027Z,101168.84
2023-01-25T13:09:12.535Z,101150.59
2023-01-25T13:11:41.947Z,101168.44
2023-01-25T13:14:18.238Z,101149.28
2023-01-25T13:17:01.445Z,101149.03
2023-01-25T13:19:31.911Z,101161.84
2023-01-25T13:22:00.792Z,101168.75
2023-01-25T13:24:32.540Z,101144.59
2023-01-25T13:27:02.488Z,101157.72
2023-01-25T13:29:38.755Z,101140.84
2023-01-25T13:32:13.224Z,101138.03
2023-01-25T13:34:44.285Z,101126.56
2023-01-25T13:37:24.740Z,101128.38
2023-01-25T13:40:06.423Z,101130.59
2023-01-25T13:42:39.554Z,101120.25
2023-01-25T13:45:18.875Z,101093.78
2023-01-25T13:48:01.636Z,101106.25
2023-01-25T13:50:34.403Z,101110.81
2023-01-25T13:53:17.166Z,101092.00
2023-01-25T13:55:46.769Z,101098.03
2023-01-25T13:58:25.614Z,101105.56
2023-01-25T14:00:55.683Z,101093.25
2023-01-25T14:03:28.199Z,101085.31
2023-01-25T14:05:57.813Z,101090.53
2023-01-25T14:08:26.540Z,101083.44
2023-01-25T14:10:54.684Z,101073.56
2023-01-25T14:13:21.724Z,101073.97
2023-01-25T14:16:01.328Z,101056.75
2023-01-25T14:18:32.098Z,101071.19
2023-01-25T14:21:20.262Z,101017.41
2023-01-25T14:23:48.839Z,101067.44
2023-01-25T14:26:23.201Z,101062.31
2023-01-25T14:29:01.037Z,101073.44
2023-01-25T14:31:37.209Z,101076.44
2023-01-25T14:34:06.240Z,101050.50
2023-01-25T14:36:35.028Z,100967.47
2023-01-25T14:39:04.586Z,101063.88
2023-01-25T14:41:41.937Z,101058.41
2023-01-25T14:44:15.270Z,101050.97
2023-01-25T14:46:42.470Z,101018.94
2023-01-25T14:49:13.208Z,101058.31
2023-01-25T14:51:41.727Z,101066.19
2023-01-25T14:54:36.229Z,101037.66
2023-01-25T14:57:06.005Z,101057.88
2023-01-25T14:59:50.681Z,101069.63
2023-01-25T15:02:39.923Z,101072.44
2023-01-25T15:05:19.775Z,101072.34
2023-01-25T15:07:52.665Z,101059.53
2023-01-25T15:10:31.329Z,101072.09
2023-01-25T15:13:12.737Z,101065.75
2023-01-25T15:15:50.891Z,101068.66
2023-01-25T15:18:53.110Z,101060.88
2023-01-25T15:21:24.487Z,101048.63
2023-01-25T15:23:52.912Z,101046.41
2023-01-25T15:26:25.277Z,101031.06
2023-01-25T15:28:55.507Z,101043.50
2023-01-25T15:31:43.471Z,101038.31
2023-01-25T15:34:17.008Z,101032.63
2023-01-25T15:36:44.061Z,101043.75
2023-01-25T15:39:19.490Z,101032.97
2023-01-25T15:41:46.932Z,101034.06
2023-01-25T15:44:14.278Z,101042.53
2023-01-25T15:46:46.100Z,101014.28
2023-01-25T15:49:18.913Z,101044.63
2023-01-25T15:51:46.993Z,101047.44
2023-01-25T15:54:13.993Z,101049.22
2023-01-25T15:56:42.754Z,101045.53
2023-01-25T15:59:17.322Z,101033.66
2023-01-25T16:01:44.899Z,101011.63
2023-01-25T16:04:15.726Z,100995.38
2023-01-25T16:06:50.565Z,101000.31
2023-01-25T16:09:21.303Z,101032.97
2023-01-25T16:11:51.567Z,101013.19
2023-01-25T16:14:19.351Z,101038.28
2023-01-25T16:16:49.677Z,101012.16
2023-01-25T16:19:19.306Z,101028.50
2023-01-25T16:21:46.276Z,101032.19
2023-01-25T16:24:13.403Z,101038.97
2023-01-25T16:26:45.722Z,101022.59
2023-01-25T16:29:13.140Z,101014.75
2023-01-25T16:31:40.217Z,100993.06
2023-01-25T16:34:07.462Z,100999.19
2023-01-25T16:36:34.875Z,101000.72
2023-01-25T16:39:15.943Z,100996.75
2023-01-25T16:41:42.922Z,101002.06
2023-01-25T16:44:09.890Z,100991.94
2023-01-25T16:46:36.871Z,100973.63
2023-01-25T16:49:07.134Z,100971.94
2023-01-25T16:51:34.417Z,100972.59
2023-01-25T16:54:01.493Z,100954.41
2023-01-25T16:56:31.440Z,100953.28
2023-01-25T16:59:02.346Z,100975.06
2023-01-25T17:01:29.468Z,100976.72
2023-01-25T17:03:56.653Z,100958.28
2023-01-25T17:06:27.462Z,101000.31
2023-01-25T17:09:02.162Z,100996.19
2023-01-25T17:11:32.453Z,100984.63
2023-01-25T17:14:01.598Z,100976.28
2023-01-25T17:16:29.867Z,100949.84
2023-01-25T17:19:07.753Z,100971.84
2023-01-25T17:21:35.024Z,100960.06
2023-01-25T17:24:02.439Z,100959.16
2023-01-25T17:26:31.585Z,100978.63
2023-01-25T17:29:02.356Z,100974.75
2023-01-25T17:31:32.313Z,100959.16
2023-01-25T17:34:03.569Z,100969.72
2023-01-25T17:36:30.626Z,100982.63
2023-01-25T17:39:02.893Z,100961.63
2023-01-25T17:41:29.927Z,100963.16
2023-01-25T17:43:57.775Z,100938.97
2023-01-25T17:46:37.425Z,100955.38
2023-01-25T17:49:06.758Z,100962.28
2023-01-25T17:51:34.883Z,100961.19
2023-01-25T17:54:03.474Z,100948.06
2023-01-25T17:56:30.950Z,100952.28
2023-01-25T17:59:01.165Z,100958.19
2023-01-25T18:01:32.257Z,100962.06
2023-01-25T18:04:00.726Z,100962.06
2023-01-25T18:06:30.406Z,100956.72
2023-01-25T18:09:00.807Z,100960.94
2023-01-25T18:11:33.520Z,100967.28
2023-01-25T18:14:03.870Z,100956.94
2023-01-25T18:16:32.567Z,100937.72
2023-01-25T18:19:01.356Z,100943.28
2023-01-25T18:21:31.738Z,100941.97
2023-01-25T18:24:35.474Z,100931.84
2023-01-25T18:27:08.505Z,100940.50
2023-01-25T18:30:00.233Z,100924.06
2023-01-25T18:32:28.279Z,100942.25
2023-01-25T18:34:55.303Z,100933.59
2023-01-25T18:37:24.273Z,100932.03
2023-01-25T18:39:55.871Z,100926.94
2023-01-25T18:42:26.455Z,100919.84
2023-01-25T18:44:53.608Z,100916.06
2023-01-25T18:47:22.672Z,100895.41
2023-01-25T18:49:51.828Z,100924.16
2023-01-25T18:52:20.887Z,100917.28
2023-01-25T18:54:47.924Z,100911.63
2023-01-25T18:57:15.849Z,100911.84
2023-01-25T18:59:43.586Z,100909.84
2023-01-25T19:02:12.913Z,100920.09
2023-01-25T19:04:40.149Z,100916.28
2023-01-25T19:07:07.734Z,100892.75
2023-01-25T19:09:34.950Z,100914.31
2023-01-25T19:12:02.092Z,100908.97
2023-01-25T19:14:29.169Z,100900.31
2023-01-25T19:16:56.531Z,100893.44
2023-01-25T19:19:23.767Z,100892.28
2023-01-25T19:21:50.889Z,100896.06
2023-01-25T19:24:19.646Z,100887.84
2023-01-25T19:26:47.488Z,100877.19
2023-01-25T19:29:15.479Z,100864.53
2023-01-25T19:31:42.531Z,100868.44
2023-01-25T19:34:12.335Z,100868.28
2023-01-25T19:36:45.894Z,100863.75
2023-01-25T19:39:15.103Z,100857.22
2023-01-25T19:41:42.582Z,100858.94
2023-01-25T19:44:12.946Z,100879.16
2023-01-25T19:46:40.436Z,100873.59
2023-01-25T19:49:08.784Z,100870.81
2023-01-25T19:51:38.521Z,100804.53
2023-01-25T19:54:09.991Z,100866.25
2023-01-25T19:56:40.343Z,100854.69
2023-01-25T19:59:11.464Z,100868.06
2023-01-25T20:01:41.972Z,100870.59
2023-01-25T20:04:09.327Z,100838.50
2023-01-25T20:06:36.705Z,100824.50
2023-01-25T20:09:04.216Z,100846.41
2023-01-25T20:11:32.951Z,100837.63
2023-01-25T20:14:03.255Z,100859.63
2023-01-25T20:16:32.410Z,100871.59
2023-01-25T20:19:00.251Z,100864.28
2023-01-25T20:21:28.937Z,100856.38
2023-01-25T20:24:00.414Z,100791.53
2023-01-25T20:26:30.540Z,100841.16
2023-01-25T20:28:58.985Z,100858.91
2023-01-25T20:31:33.924Z,100855.38
2023-01-25T20:34:04.905Z,100864.22
2023-01-25T20:36:34.956Z,100851.13
2023-01-25T20:39:02.550Z,100843.47
2023-01-25T20:41:29.716Z,100849.81
2023-01-25T20:44:04.529Z,100834.50
2023-01-25T20:46:34.742Z,100803.41
2023-01-25T20:49:02.141Z,100828.25
2023-01-25T20:51:29.722Z,100834.25
2023-01-25T20:53:57.517Z,100819.38
2023-01-25T20:56:24.938Z,100825.72
2023-01-25T20:58:53.402Z,100822.94
2023-01-25T21:01:28.386Z,100811.97
2023-01-25T21:03:59.481Z,100785.91
2023-01-25T21:06:29.036Z,100758.59
2023-01-25T21:08:56.596Z,100801.44
2023-01-25T21:11:23.665Z,100808.00
2023-01-25T21:13:50.775Z,100814.34
2023-01-25T21:16:21.742Z,100806.13
2023-01-25T21:18:54.769Z,100754.97
2023-01-25T21:21:31.624Z,100799.16
2023-01-25T21:24:02.702Z,100781.50
2023-01-25T21:26:32.534Z,100767.88
2023-01-25T21:29:01.918Z,100725.91
2023-01-25T21:31:36.579Z,100795.06
2023-01-25T21:34:05.291Z,100753.56
2023-01-25T21:36:32.983Z,100767.97
2023-01-25T21:39:00.259Z,100737.81
2023-01-25T21:41:30.241Z,100765.31
2023-01-25T21:44:17.711Z,100767.75
2023-01-25T21:47:00.733Z,100752.75
2023-01-25T21:49:51.426Z,100743.34
2023-01-25T21:52:18.385Z,100758.44
2023-01-25T21:54:45.335Z,100748.44
2023-01-25T21:57:12.391Z,100695.09
2023-01-25T21:59:41.003Z,100754.88
2023-01-25T22:02:13.270Z,100743.34
2023-01-25T22:04:40.558Z,100763.56
2023-01-25T22:07:09.199Z,100772.63
2023-01-25T22:09:36.463Z,100748.88
2023-01-25T22:12:05.644Z,100755.78
2023-01-25T22:14:32.765Z,100762.56
2023-01-25T22:16:59.805Z,100711.72
2023-01-25T22:19:26.820Z,100753.56
2023-01-25T22:21:53.852Z,100763.97
2023-01-25T22:24:21.047Z,100750.31
2023-01-25T22:26:59.227Z,100738.56
2023-01-25T22:29:26.718Z,100759.28
2023-01-25T22:31:53.823Z,100755.44
2023-01-25T22:34:20.797Z,100750.44
2023-01-25T22:36:48.876Z,100750.75
2023-01-25T22:39:15.953Z,100759.75
2023-01-25T22:41:43.084Z,100745.44
2023-01-25T22:44:10.174Z,100749.75
2023-01-25T22:46:37.507Z,100745.53
2023-01-25T22:49:05.034Z,100743.56
2023-01-25T22:51:32.491Z,100695.97
2023-01-25T22:54:00.464Z,100746.66
2023-01-25T22:56:32.713Z,100709.72
2023-01-25T22:59:00.586Z,100732.59
2023-01-25T23:01:33.286Z,100728.38
2023-01-25T23:04:01.544Z,100727.03
2023-01-25T23:06:31.844Z,100719.59
2023-01-25T23:09:14.388Z,100681.88
2023-01-25T23:11:41.372Z,100714.16
2023-01-25T23:14:30.808Z,100698.09
2023-01-25T23:17:17.746Z,100721.81
2023-01-25T23:19:44.867Z,100724.25
2023-01-25T23:22:11.913Z,100732.00
2023-01-25T23:24:38.874Z,100641.50
2023-01-25T23:27:05.812Z,100718.03
2023-01-25T23:29:32.852Z,100720.41
2023-01-25T23:31:59.931Z,100709.16
2023-01-25T23:34:27.011Z,100713.72
2023-01-25T23:36:53.992Z,100714.28
2023-01-25T23:39:20.932Z,100710.06
2023-01-25T23:41:49.620Z,100709.84
2023-01-25T23:44:16.557Z,100705.63
2023-01-25T23:46:43.645Z,100703.63
2023-01-25T23:49:10.765Z,100706.28
2023-01-25T23:51:37.763Z,100696.84
2023-01-25T23:54:04.902Z,100671.47
2023-01-25T23:56:31.900Z,100680.91
2023-01-25T23:58:58.901Z,100679.69
